Latest Weather Observations for Normanton

IDQ60801

Issued at 4:32 pm EST Thursday 25 May 2017 (issued every 30 minutes, with the page automatically refreshed every 10 minutes)

About weather observations | Map of weather stations | Latest weather observations for QLD | Other Formats
Station Details ID: 029063 Name: NORMANTON AIRPORT Lat: -17.69 Lon: 141.07 Height: 18.42 m
Data from the previous 72 hours. | See also: Recent months at Normanton
Date/Time
EST
Temp
°C
App
Temp
°C
Dew
Point
°C
Rel
Hum
%
Delta-T
°C
Wind Press
QNH
hPa
Press
MSL
hPa
Rain since
9am
mm
Dir  Spd
km/h
Gust
km/h
Spd
kts
Gust
kts
25/04:30pm 31.7 26.3 4.5 18 14.2 SSE 22 33 12 18 1012.9 - 0.0
25/04:00pm 31.8 27.1 5.3 19 14.0 SE 19 26 10 14 1012.9 - 0.0
25/03:30pm 31.9 27.8 6.2 20 13.8 ESE 17 30 9 16 1013.1 - 0.0
25/03:00pm 31.7 27.3 6.7 21 13.5 ESE 19 30 10 16 1013.2 1013.1 0.0
25/02:30pm 31.5 27.2 7.2 22 13.2 E 19 32 10 17 1013.5 - 0.0
25/02:00pm 31.1 26.4 6.2 21 13.3 ESE 20 33 11 18 1013.9 - 0.0
25/01:30pm 30.8 26.9 7.3 23 12.8 ESE 17 33 9 18 1014.4 - 0.0
25/01:00pm 31.1 27.5 8.2 24 12.6 SE 17 33 9 18 1015.1 - 0.0
25/12:30pm 30.3 26.4 8.7 26 12.0 ESE 19 28 10 15 1015.6 - 0.0
25/12:00pm 29.8 26.3 8.8 27 11.6 ESE 17 30 9 16 1016.0 1015.9 0.0
25/11:30am 29.2 25.5 9.3 29 11.1 E 19 30 10 16 1016.2 - 0.0
25/11:00am 28.9 26.1 10.1 31 10.6 E 15 24 8 13 1016.4 - 0.0
25/10:30am 27.2 24.7 12.4 40 8.6 E 17 26 9 14 1016.9 - 0.0
25/10:00am 26.4 24.3 13.5 45 7.6 E 17 30 9 16 1017.3 - 0.0
25/09:30am 25.4 23.1 12.9 45 7.3 E 17 24 9 13 1017.2 - 0.0
25/09:00am 24.3 23.2 14.4 54 5.9 E 13 22 7 12 1017.0 1016.9 0.0
25/08:30am 23.0 22.8 14.8 60 4.9 ESE 9 15 5 8 1016.7 - 0.0
25/08:00am 21.7 21.1 14.6 64 4.2 ESE 11 20 6 11 1016.3 - 0.0
25/07:30am 20.2 19.7 15.0 72 3.1 SE 11 15 6 8 1016.1 - 0.0
25/07:00am 19.9 19.5 15.3 75 2.7 SE 11 15 6 8 1015.9 - 0.0
25/06:30am 20.1 19.7 15.3 74 2.8 SSE 11 15 6 8 1015.7 - 0.0
25/06:00am 20.8 20.4 15.1 70 3.4 SE 11 15 6 8 1015.3 - 0.0
25/05:30am 21.0 21.0 15.1 69 3.5 SE 9 13 5 7 1015.0 - 0.0
25/05:00am 21.2 21.2 15.1 68 3.6 SE 9 13 5 7 1014.9 - 0.0
25/04:30am 21.4 21.8 15.3 68 3.6 SE 7 11 4 6 1014.7 - 0.0
25/04:00am 22.0 22.4 15.4 66 3.9 SE 7 11 4 6 1014.7 - 0.0
25/03:30am 22.6 22.7 15.4 64 4.3 ESE 9 13 5 7 1014.6 - 0.0
25/03:00am 22.8 23.4 15.9 65 4.2 ESE 7 11 4 6 1014.7 1014.6 0.0
25/02:30am 23.0 23.4 16.3 66 4.1 SE 9 13 5 7 1014.6 - 0.0
25/02:00am 24.1 24.2 16.4 62 4.7 SE 11 17 6 9 1014.7 - 0.0
25/01:30am 24.1 24.7 16.9 64 4.4 ESE 9 17 5 9 1014.5 - 0.0
25/01:00am 24.0 24.9 17.5 67 4.0 ESE 9 15 5 8 1014.5 - 0.0
25/12:30am 23.8 25.3 17.5 68 3.9 ESE 6 7 3 4 1014.5 - 0.0
25/12:00am 25.0 25.9 17.5 63 4.7 SE 9 13 5 7 1014.8 1014.7 0.0
 
Date/Time
EST
Temp
°C
App
Temp
°C
Dew
Point
°C
Rel
Hum
%
Delta-T
°C
Wind Press
QNH
hPa
Press
MSL
hPa
Rain since
9am
mm
Dir  Spd
km/h
Gust
km/h
Spd
kts
Gust
kts
24/11:30pm 25.3 26.2 17.5 62 4.9 SSE 9 13 5 7 1014.9 - 0.0
24/11:00pm 25.1 26.0 17.6 63 4.7 S 9 11 5 6 1014.9 - 0.0
24/10:30pm 25.1 26.1 17.8 64 4.6 S 9 11 5 6 1014.9 - 0.0
24/10:00pm 24.9 26.0 18.1 66 4.3 S 9 9 5 5 1014.9 - 0.0
24/09:30pm 25.4 26.5 18.1 64 4.6 S 9 9 5 5 1014.9 - 0.0
24/09:00pm 25.6 26.7 18.0 63 4.8 S 9 9 5 5 1014.9 1014.7 0.0
24/08:30pm 25.8 26.9 18.0 62 4.9 S 9 9 5 5 1014.6 - 0.0
24/08:00pm 26.7 28.0 17.5 57 5.8 S 7 9 4 5 1014.4 - 0.0
24/07:30pm 27.0 28.1 17.2 55 6.1 SSE 7 9 4 5 1014.0 - 0.0
24/07:00pm 27.9 28.5 16.8 50 6.9 SSE 9 11 5 6 1013.7 - 0.0
24/06:30pm 28.8 29.2 16.4 47 7.7 SSE 9 13 5 7 1013.5 - 0.0
24/06:00pm 30.0 29.6 16.1 43 8.6 SSE 13 20 7 11 1013.2 1013.1 0.0
24/05:30pm 30.7 29.7 15.5 39 9.4 SSE 15 24 8 13 1013.0 - 0.0
24/05:00pm 31.5 30.6 15.9 39 9.7 SSE 15 22 8 12 1012.7 - 0.0
24/04:30pm 31.6 30.0 16.0 39 9.7 SE 19 28 10 15 1012.7 - 0.0
24/04:00pm 31.6 30.9 16.3 39 9.6 SE 15 26 8 14 1012.7 - 0.0
24/03:30pm 32.3 30.8 16.2 38 10.1 S 19 28 10 15 1012.7 - 0.0
24/03:00pm 30.9 29.0 15.7 39 9.4 SSE 20 30 11 16 1012.7 1012.7 0.0
24/02:30pm 32.0 32.4 16.3 39 9.9 SE 9 20 5 11 1013.0 - 0.0
24/02:00pm 32.2 31.1 17.3 41 9.5 ESE 19 32 10 17 1013.2 - 0.0
24/01:30pm 31.4 31.4 16.2 40 9.5 SE 11 22 6 12 1013.9 - 0.0
24/01:00pm 31.4 31.8 17.3 43 9.0 SE 11 26 6 14 1014.5 - 0.0
24/12:30pm 31.0 30.9 17.0 43 8.9 ESE 13 30 7 16 1015.0 - 0.0
24/12:00pm 30.2 29.3 16.9 44 8.4 SE 17 28 9 15 1015.5 1015.4 0.0
24/11:30am 30.0 29.4 17.5 47 7.9 E 17 28 9 15 1015.7 - 0.0
24/11:00am 29.5 29.0 17.7 49 7.5 E 17 28 9 15 1016.2 - 0.0
24/10:30am 28.7 27.9 17.9 52 6.9 ESE 19 28 10 15 1016.6 - 0.0
24/10:00am 28.0 26.9 17.8 54 6.5 E 20 32 11 17 1016.7 - 0.0
24/09:30am 27.3 26.6 18.3 58 5.7 E 19 32 10 17 1016.7 - 0.0
24/09:00am 26.3 26.2 18.7 63 4.8 ESE 17 26 9 14 1016.5 1016.4 0.0
24/08:30am 25.4 25.5 18.3 65 4.5 ESE 15 28 8 15 1016.3 - 0.0
24/08:00am 24.9 25.9 18.6 68 4.0 E 11 22 6 12 1015.7 - 0.0
24/07:30am 23.6 25.1 18.9 75 3.0 E 9 15 5 8 1015.5 - 0.0
24/07:00am 23.0 24.4 18.7 77 2.7 ESE 9 15 5 8 1015.0 - 0.0
24/06:30am 23.0 24.5 19.0 78 2.5 ESE 9 17 5 9 1014.7 - 0.0
24/06:00am 23.0 24.9 19.0 78 2.5 ESE 7 13 4 7 1014.3 1014.2 0.0
24/05:30am 23.2 24.6 18.7 76 2.8 ESE 9 15 5 8 1014.1 - 0.0
24/05:00am 23.6 24.7 18.9 75 3.0 ESE 11 17 6 9 1013.8 - 0.0
24/04:30am 23.6 25.5 18.9 75 3.0 ESE 7 13 4 7 1013.5 - 0.0
24/04:00am 23.4 24.9 18.9 76 2.9 SE 9 13 5 7 1013.5 - 0.0
24/03:30am 23.7 25.2 19.0 75 3.0 SE 9 15 5 8 1013.4 - 0.0
24/03:00am 24.0 25.5 18.9 73 3.2 SE 9 15 5 8 1013.4 1013.3 0.0
24/02:30am 24.2 25.7 18.8 72 3.4 SE 9 13 5 7 1013.4 - 0.0
24/02:00am 24.6 26.1 18.8 70 3.7 SE 9 15 5 8 1013.5 - 0.0
24/01:30am 25.1 26.0 18.5 67 4.2 ESE 11 15 6 8 1013.7 - 0.0
24/01:00am 25.4 26.3 18.3 65 4.5 SE 11 17 6 9 1013.8 - 0.0
24/12:30am 25.3 25.7 18.2 64 4.5 SE 13 22 7 12 1013.9 - 0.0
24/12:00am 24.6 25.0 18.1 67 4.1 S 13 22 7 12 1013.9 1013.8 0.0
 
Date/Time
EST
Temp
°C
App
Temp
°C
Dew
Point
°C
Rel
Hum
%
Delta-T
°C
Wind Press
QNH
hPa
Press
MSL
hPa
Rain since
9am
mm
Dir  Spd
km/h
Gust
km/h
Spd
kts
Gust
kts
23/11:30pm 24.4 25.0 17.6 66 4.2 S 11 13 6 7 1013.9 - 0.0
23/11:00pm 24.5 24.9 17.2 63 4.5 S 11 13 6 7 1014.0 - 0.0
23/10:30pm 24.6 24.8 16.8 62 4.8 S 11 13 6 7 1014.1 - 0.0
23/10:00pm 24.9 25.0 16.6 60 5.1 S 11 15 6 8 1014.2 - 0.0
23/09:30pm 25.1 25.7 16.8 60 5.1 S 9 11 5 6 1014.1 - 0.0
23/09:00pm 25.5 26.3 16.4 57 5.6 S 7 9 4 5 1014.0 1013.9 0.0
23/08:30pm 25.5 26.2 16.1 56 5.8 S 7 7 4 4 1013.8 - 0.0
23/08:00pm 25.8 26.7 16.1 55 5.9 S 6 7 3 4 1013.5 - 0.0
23/07:30pm 26.0 26.9 16.0 54 6.1 S 6 7 3 4 1013.1 - 0.0
23/07:00pm 25.9 26.4 15.6 53 6.3 S 7 9 4 5 1012.8 - 0.0
23/06:30pm 27.1 26.9 14.8 47 7.4 S 9 9 5 5 1012.5 - 0.0
23/06:00pm 29.6 28.1 14.2 39 9.3 S 15 17 8 9 1012.2 1012.0 0.0
23/05:30pm 30.4 28.0 13.7 36 10.0 S 19 24 10 13 1012.0 - 0.0
23/05:00pm 31.2 28.6 13.9 35 10.5 SSE 20 30 11 16 1011.8 - 0.0
23/04:30pm 31.3 28.7 13.1 33 10.9 S 19 28 10 15 1011.7 - 0.0
23/04:00pm 31.4 29.2 13.2 33 10.9 SE 17 28 9 15 1011.8 - 0.0
23/03:30pm 31.5 28.9 13.3 33 10.9 SSE 19 33 10 18 1011.9 - 0.0
23/03:00pm 31.6 30.0 13.8 34 10.8 SSE 15 33 8 18 1011.8 1011.7 0.0
23/02:30pm 31.5 29.6 14.2 35 10.5 S 17 24 9 13 1012.1 - 0.0
23/02:00pm 31.2 28.9 13.0 33 10.8 SSE 17 26 9 14 1012.4 - 0.0
23/01:30pm 30.4 29.8 14.5 38 9.7 SE 11 24 6 13 1013.0 - 0.0
23/01:00pm 30.7 31.1 16.3 42 9.0 SSE 9 15 5 8 1013.5 - 0.0
23/12:30pm 30.3 30.6 17.0 44 8.4 SSE 11 15 6 8 1014.1 - 0.0
23/12:00pm 28.9 29.5 16.8 48 7.6 E 9 20 5 11 1014.6 1014.6 0.0
23/11:30am 28.3 28.7 17.2 51 7.0 ESE 11 19 6 10 1015.0 - 0.0
23/11:00am 27.8 28.2 17.3 52 6.6 ESE 11 20 6 11 1015.6 - 0.0
23/10:30am 27.2 27.3 17.4 55 6.2 E 13 22 7 12 1015.8 - 0.0
23/10:00am 26.2 25.7 17.0 57 5.7 E 15 22 8 12 1016.1 - 0.0
23/09:30am 25.4 24.9 16.8 59 5.3 ESE 15 22 8 12 1016.2 - 0.0
23/09:00am 24.2 24.3 16.5 62 4.7 E 11 19 6 10 1016.1 1016.0 0.0
23/08:30am 23.0 22.8 15.8 64 4.3 ESE 11 19 6 10 1015.9 - 0.0
23/08:00am 21.7 22.0 16.0 70 3.4 SE 9 15 5 8 1015.7 - 0.0
23/07:30am 20.6 20.5 16.0 75 2.8 SE 11 15 6 8 1015.3 - 0.0
23/07:00am 20.1 19.6 15.9 77 2.5 SSE 13 17 7 9 1015.0 - 0.0
23/06:30am 20.4 20.2 15.8 75 2.7 SSE 11 15 6 8 1014.8 - 0.0
23/06:00am 20.6 20.4 15.8 74 2.9 SSE 11 15 6 8 1014.3 1014.1 0.0
23/05:30am 21.1 21.4 15.9 72 3.1 SSE 9 13 5 7 1014.0 - 0.0
23/05:00am 20.8 20.9 16.6 77 2.5 SSE 11 15 6 8 1013.7 - 0.0
23/04:30am 21.6 22.0 17.2 76 2.7 SSE 11 13 6 7 1013.4 - 0.0
23/04:00am 21.7 21.8 17.5 77 2.6 S 13 15 7 8 1013.2 - 0.0
23/03:30am 22.4 22.5 17.5 74 3.0 S 13 15 7 8 1013.2 - 0.0
23/03:00am 23.4 23.1 17.4 69 3.7 S 15 17 8 9 1013.4 1013.3 0.0
23/02:30am 22.0 22.8 18.2 79 2.4 SSW 11 13 6 7 1013.5 - 0.0
23/02:00am 22.3 23.5 18.3 78 2.5 SSW 9 13 5 7 1013.6 - 0.0
23/01:30am 22.5 23.7 18.3 77 2.6 SSW 9 13 5 7 1013.7 - 0.0
23/01:00am 23.0 23.4 18.1 74 3.1 SSW 13 15 7 8 1014.0 - 0.0
23/12:30am 24.1 25.3 18.3 70 3.7 S 9 9 5 5 1013.9 - 0.0
23/12:00am 23.8 25.3 18.9 74 3.1 S 9 11 5 6 1014.1 1014.0 0.0
 
Date/Time
EST
Temp
°C
App
Temp
°C
Dew
Point
°C
Rel
Hum
%
Delta-T
°C
Wind Press
QNH
hPa
Press
MSL
hPa
Rain since
9am
mm
Dir  Spd
km/h
Gust
km/h
Spd
kts
Gust
kts
22/11:30pm 24.6 26.3 18.5 69 3.9 S 7 7 4 4 1014.2 - 0.0
22/11:00pm 25.7 26.7 16.8 58 5.5 SE 7 9 4 5 1014.3 - 0.0
22/10:30pm 26.4 27.2 17.2 57 5.7 SE 9 11 5 6 1014.4 - 0.0
22/10:00pm 26.4 27.4 17.7 58 5.5 SSE 9 11 5 6 1014.3 - 0.0
22/09:30pm 26.7 27.8 18.0 59 5.5 SSE 9 11 5 6 1014.3 - 0.0
22/09:00pm 27.0 28.6 17.8 57 5.8 SSE 6 11 3 6 1014.2 1014.0 0.0
22/08:30pm 28.3 29.6 17.5 52 6.8 SSE 7 11 4 6 1014.0 - 0.0
22/08:00pm 28.8 30.0 17.3 49 7.3 SSE 7 9 4 5 1013.7 - 0.0
22/07:30pm 28.5 29.8 17.1 50 7.2 SSE 6 7 3 4 1013.4 - 0.0
22/07:00pm 29.1 30.4 17.0 48 7.6 SSE 6 7 3 4 1013.1 - 0.0
22/06:30pm 29.7 30.2 16.5 45 8.3 SSE 9 11 5 6 1012.7 - 0.0
22/06:00pm 30.4 30.2 15.7 41 9.1 SSE 11 15 6 8 1012.5 1012.4 0.0
22/05:30pm 31.1 30.3 15.1 38 9.8 SSE 13 20 7 11 1012.3 - 0.0
22/05:00pm 31.9 30.4 15.4 37 10.2 SSE 17 22 9 12 1012.1 - 0.0

Other Formats:

Comma delimited format used in spreadsheet applications
http://www.bom.gov.au/fwo/IDQ60801/IDQ60801.94266.axf

JavaScript Object Notation format (JSON) in row-major order
http://www.bom.gov.au/fwo/IDQ60801/IDQ60801.94266.json